sensor_id;sensor_type;location;lat;lon;timestamp;P1;durP1;ratioP1;P2;durP2;ratioP2
70335;SDS011;57756;47.408;18.940;2022-09-03T00:01:10;4.80;;;1.75;;
70335;SDS011;57756;47.408;18.940;2022-09-03T00:03:54;3.63;;;1.17;;
70335;SDS011;57756;47.408;18.940;2022-09-03T00:06:30;3.63;;;1.45;;
70335;SDS011;57756;47.408;18.940;2022-09-03T00:09:08;3.20;;;1.40;;
70335;SDS011;57756;47.408;18.940;2022-09-03T00:14:18;4.32;;;1.50;;
70335;SDS011;57756;47.408;18.940;2022-09-03T00:17:04;3.47;;;1.60;;
70335;SDS011;57756;47.408;18.940;2022-09-03T00:19:42;3.45;;;1.45;;
70335;SDS011;57756;47.408;18.940;2022-09-03T00:22:31;3.23;;;1.20;;
70335;SDS011;57756;47.408;18.940;2022-09-03T00:25:01;3.35;;;1.50;;
70335;SDS011;57756;47.408;18.940;2022-09-03T00:27:30;5.47;;;1.38;;
70335;SDS011;57756;47.408;18.940;2022-09-03T00:30:19;4.20;;;1.63;;
70335;SDS011;57756;47.408;18.940;2022-09-03T00:35:27;3.83;;;1.70;;
70335;SDS011;57756;47.408;18.940;2022-09-03T00:37:56;3.58;;;1.42;;
70335;SDS011;57756;47.408;18.940;2022-09-03T00:46:07;3.95;;;1.52;;
70335;SDS011;57756;47.408;18.940;2022-09-03T00:48:56;5.03;;;1.63;;
70335;SDS011;57756;47.408;18.940;2022-09-03T00:51:43;4.70;;;1.67;;
70335;SDS011;57756;47.408;18.940;2022-09-03T00:54:39;4.90;;;1.52;;
70335;SDS011;57756;47.408;18.940;2022-09-03T01:00:14;3.22;;;1.30;;
70335;SDS011;57756;47.408;18.940;2022-09-03T01:11:26;5.85;;;1.95;;
70335;SDS011;57756;47.408;18.940;2022-09-03T01:14:03;3.47;;;1.85;;
70335;SDS011;57756;47.408;18.940;2022-09-03T01:22:27;3.28;;;1.60;;
70335;SDS011;57756;47.408;18.940;2022-09-03T01:25:19;3.97;;;1.50;;
70335;SDS011;57756;47.408;18.940;2022-09-03T01:30:14;4.10;;;1.73;;
70335;SDS011;57756;47.408;18.940;2022-09-03T01:33:00;3.25;;;1.45;;
70335;SDS011;57756;47.408;18.940;2022-09-03T01:46:42;4.53;;;1.45;;
70335;SDS011;57756;47.408;18.940;2022-09-03T01:49:33;4.63;;;2.27;;
70335;SDS011;57756;47.408;18.940;2022-09-03T01:52:05;5.00;;;1.60;;
70335;SDS011;57756;47.408;18.940;2022-09-03T01:54:40;3.88;;;1.70;;
70335;SDS011;57756;47.408;18.940;2022-09-03T01:57:23;4.80;;;1.73;;
70335;SDS011;57756;47.408;18.940;2022-09-03T02:00:00;4.28;;;1.67;;
70335;SDS011;57756;47.408;18.940;2022-09-03T02:02:30;4.10;;;1.67;;
70335;SDS011;57756;47.408;18.940;2022-09-03T02:07:37;3.78;;;1.70;;
70335;SDS011;57756;47.408;18.940;2022-09-03T02:10:14;4.53;;;1.73;;
70335;SDS011;57756;47.408;18.940;2022-09-03T02:12:47;5.07;;;2.10;;
70335;SDS011;57756;47.408;18.940;2022-09-03T02:15:17;4.47;;;1.77;;
70335;SDS011;57756;47.408;18.940;2022-09-03T02:17:45;3.72;;;1.60;;
70335;SDS011;57756;47.408;18.940;2022-09-03T02:20:15;4.45;;;1.77;;
70335;SDS011;57756;47.408;18.940;2022-09-03T02:22:44;4.03;;;1.70;;
70335;SDS011;57756;47.408;18.940;2022-09-03T02:25:10;4.27;;;1.67;;
70335;SDS011;57756;47.408;18.940;2022-09-03T02:27:36;4.57;;;1.95;;
70335;SDS011;57756;47.408;18.940;2022-09-03T02:30:03;5.40;;;1.63;;
70335;SDS011;57756;47.408;18.940;2022-09-03T02:32:29;5.27;;;1.70;;
70335;SDS011;57756;47.408;18.940;2022-09-03T02:34:55;5.57;;;1.90;;
70335;SDS011;57756;47.408;18.940;2022-09-03T02:37:21;4.88;;;1.63;;
70335;SDS011;57756;47.408;18.940;2022-09-03T02:39:47;5.03;;;1.73;;
70335;SDS011;57756;47.408;18.940;2022-09-03T02:42:14;6.03;;;2.30;;
70335;SDS011;57756;47.408;18.940;2022-09-03T02:44:43;4.80;;;2.25;;
70335;SDS011;57756;47.408;18.940;2022-09-03T02:47:16;4.45;;;1.92;;
70335;SDS011;57756;47.408;18.940;2022-09-03T02:49:44;4.87;;;1.97;;
70335;SDS011;57756;47.408;18.940;2022-09-03T02:52:13;4.65;;;2.10;;
70335;SDS011;57756;47.408;18.940;2022-09-03T02:54:39;4.78;;;2.47;;
70335;SDS011;57756;47.408;18.940;2022-09-03T02:57:05;5.83;;;2.20;;
70335;SDS011;57756;47.408;18.940;2022-09-03T02:59:32;5.85;;;1.80;;
70335;SDS011;57756;47.408;18.940;2022-09-03T03:01:57;5.45;;;2.03;;
70335;SDS011;57756;47.408;18.940;2022-09-03T03:04:23;5.40;;;2.30;;
70335;SDS011;57756;47.408;18.940;2022-09-03T03:06:49;5.28;;;2.25;;
70335;SDS011;57756;47.408;18.940;2022-09-03T03:09:17;4.90;;;2.28;;
70335;SDS011;57756;47.408;18.940;2022-09-03T03:11:43;4.70;;;2.10;;
70335;SDS011;57756;47.408;18.940;2022-09-03T03:14:09;5.72;;;1.77;;
70335;SDS011;57756;47.408;18.940;2022-09-03T03:16:35;5.00;;;2.10;;
70335;SDS011;57756;47.408;18.940;2022-09-03T03:19:00;5.13;;;2.30;;
70335;SDS011;57756;47.408;18.940;2022-09-03T03:21:26;4.47;;;1.85;;
70335;SDS011;57756;47.408;18.940;2022-09-03T03:23:51;5.43;;;2.10;;
70335;SDS011;57756;47.408;18.940;2022-09-03T03:26:18;4.55;;;1.92;;
70335;SDS011;57756;47.408;18.940;2022-09-03T03:28:45;7.03;;;2.47;;
70335;SDS011;57756;47.408;18.940;2022-09-03T03:31:14;6.50;;;2.83;;
70335;SDS011;57756;47.408;18.940;2022-09-03T03:33:41;5.53;;;2.33;;
70335;SDS011;57756;47.408;18.940;2022-09-03T03:36:08;5.15;;;2.45;;
70335;SDS011;57756;47.408;18.940;2022-09-03T03:38:39;5.35;;;2.58;;
70335;SDS011;57756;47.408;18.940;2022-09-03T03:41:16;6.03;;;2.53;;
70335;SDS011;57756;47.408;18.940;2022-09-03T03:43:43;6.68;;;2.60;;
70335;SDS011;57756;47.408;18.940;2022-09-03T03:46:09;7.30;;;2.90;;
70335;SDS011;57756;47.408;18.940;2022-09-03T03:48:35;8.55;;;3.10;;
70335;SDS011;57756;47.408;18.940;2022-09-03T03:51:02;6.03;;;2.60;;
70335;SDS011;57756;47.408;18.940;2022-09-03T03:53:31;5.73;;;2.67;;
70335;SDS011;57756;47.408;18.940;2022-09-03T03:56:01;9.10;;;2.63;;
70335;SDS011;57756;47.408;18.940;2022-09-03T03:58:29;6.82;;;3.17;;
70335;SDS011;57756;47.408;18.940;2022-09-03T04:01:03;7.65;;;3.00;;
70335;SDS011;57756;47.408;18.940;2022-09-03T04:03:33;6.47;;;3.13;;
70335;SDS011;57756;47.408;18.940;2022-09-03T04:06:00;7.97;;;3.07;;
70335;SDS011;57756;47.408;18.940;2022-09-03T04:08:26;7.35;;;3.17;;
70335;SDS011;57756;47.408;18.940;2022-09-03T04:10:52;7.82;;;3.50;;
70335;SDS011;57756;47.408;18.940;2022-09-03T04:13:18;7.22;;;2.92;;
70335;SDS011;57756;47.408;18.940;2022-09-03T04:15:43;7.13;;;3.20;;
70335;SDS011;57756;47.408;18.940;2022-09-03T04:18:09;8.70;;;3.35;;
70335;SDS011;57756;47.408;18.940;2022-09-03T04:20:35;6.73;;;3.30;;
70335;SDS011;57756;47.408;18.940;2022-09-03T04:23:01;7.85;;;2.83;;
70335;SDS011;57756;47.408;18.940;2022-09-03T04:25:27;8.35;;;3.40;;
70335;SDS011;57756;47.408;18.940;2022-09-03T04:27:53;6.87;;;2.87;;
70335;SDS011;57756;47.408;18.940;2022-09-03T04:30:18;8.00;;;3.38;;
70335;SDS011;57756;47.408;18.940;2022-09-03T04:32:44;8.80;;;3.08;;
70335;SDS011;57756;47.408;18.940;2022-09-03T04:35:20;6.35;;;2.75;;
70335;SDS011;57756;47.408;18.940;2022-09-03T04:37:47;7.03;;;3.00;;
70335;SDS011;57756;47.408;18.940;2022-09-03T04:40:13;5.70;;;2.80;;
70335;SDS011;57756;47.408;18.940;2022-09-03T04:42:39;7.67;;;3.30;;
70335;SDS011;57756;47.408;18.940;2022-09-03T04:45:04;5.73;;;3.13;;
70335;SDS011;57756;47.408;18.940;2022-09-03T04:47:30;6.40;;;2.75;;
70335;SDS011;57756;47.408;18.940;2022-09-03T04:49:56;8.20;;;3.43;;
70335;SDS011;57756;47.408;18.940;2022-09-03T04:52:22;9.10;;;2.90;;
70335;SDS011;57756;47.408;18.940;2022-09-03T04:54:48;5.93;;;2.35;;
70335;SDS011;57756;47.408;18.940;2022-09-03T04:57:14;6.90;;;2.63;;
70335;SDS011;57756;47.408;18.940;2022-09-03T04:59:39;5.95;;;2.75;;
70335;SDS011;57756;47.408;18.940;2022-09-03T05:02:06;6.20;;;3.10;;
70335;SDS011;57756;47.408;18.940;2022-09-03T05:04:32;8.57;;;3.23;;
70335;SDS011;57756;47.408;18.940;2022-09-03T05:06:58;7.28;;;2.80;;
70335;SDS011;57756;47.408;18.940;2022-09-03T05:09:23;5.10;;;2.47;;
70335;SDS011;57756;47.408;18.940;2022-09-03T05:11:49;5.15;;;2.67;;
70335;SDS011;57756;47.408;18.940;2022-09-03T05:14:14;6.73;;;2.87;;
70335;SDS011;57756;47.408;18.940;2022-09-03T05:16:40;7.13;;;2.63;;
70335;SDS011;57756;47.408;18.940;2022-09-03T05:19:06;7.03;;;3.38;;
70335;SDS011;57756;47.408;18.940;2022-09-03T05:21:32;6.45;;;2.80;;
70335;SDS011;57756;47.408;18.940;2022-09-03T05:24:00;5.90;;;2.43;;
70335;SDS011;57756;47.408;18.940;2022-09-03T05:26:27;5.43;;;2.30;;
70335;SDS011;57756;47.408;18.940;2022-09-03T05:28:58;5.32;;;2.50;;
70335;SDS011;57756;47.408;18.940;2022-09-03T05:31:27;5.43;;;2.30;;
70335;SDS011;57756;47.408;18.940;2022-09-03T05:33:56;5.28;;;2.17;;
70335;SDS011;57756;47.408;18.940;2022-09-03T05:36:25;6.93;;;2.67;;
70335;SDS011;57756;47.408;18.940;2022-09-03T05:38:52;5.22;;;2.63;;
70335;SDS011;57756;47.408;18.940;2022-09-03T05:41:22;7.78;;;2.25;;
70335;SDS011;57756;47.408;18.940;2022-09-03T05:43:48;5.45;;;2.17;;
70335;SDS011;57756;47.408;18.940;2022-09-03T05:46:19;4.50;;;1.67;;
70335;SDS011;57756;47.408;18.940;2022-09-03T05:48:44;4.53;;;2.20;;
70335;SDS011;57756;47.408;18.940;2022-09-03T05:51:14;3.80;;;1.80;;
70335;SDS011;57756;47.408;18.940;2022-09-03T05:53:41;5.32;;;2.15;;
70335;SDS011;57756;47.408;18.940;2022-09-03T05:56:10;6.57;;;2.10;;
70335;SDS011;57756;47.408;18.940;2022-09-03T05:58:38;3.90;;;1.50;;
70335;SDS011;57756;47.408;18.940;2022-09-03T06:01:09;3.55;;;1.42;;
70335;SDS011;57756;47.408;18.940;2022-09-03T06:03:38;3.50;;;1.38;;
70335;SDS011;57756;47.408;18.940;2022-09-03T06:06:05;4.38;;;1.60;;
70335;SDS011;57756;47.408;18.940;2022-09-03T06:08:31;3.20;;;1.53;;
70335;SDS011;57756;47.408;18.940;2022-09-03T06:10:58;5.07;;;1.60;;
70335;SDS011;57756;47.408;18.940;2022-09-03T06:13:28;4.50;;;1.52;;
70335;SDS011;57756;47.408;18.940;2022-09-03T06:15:57;3.70;;;1.40;;
70335;SDS011;57756;47.408;18.940;2022-09-03T06:18:26;5.18;;;1.30;;
70335;SDS011;57756;47.408;18.940;2022-09-03T06:21:02;3.73;;;1.60;;
70335;SDS011;57756;47.408;18.940;2022-09-03T06:23:29;3.25;;;1.30;;
70335;SDS011;57756;47.408;18.940;2022-09-03T06:28:27;4.55;;;1.30;;
70335;SDS011;57756;47.408;18.940;2022-09-03T06:30:56;3.67;;;1.30;;
70335;SDS011;57756;47.408;18.940;2022-09-03T06:33:22;3.22;;;1.38;;
70335;SDS011;57756;47.408;18.940;2022-09-03T06:35:51;4.05;;;1.48;;
70335;SDS011;57756;47.408;18.940;2022-09-03T06:38:27;4.13;;;1.70;;
70335;SDS011;57756;47.408;18.940;2022-09-03T06:40:57;3.87;;;1.67;;
70335;SDS011;57756;47.408;18.940;2022-09-03T06:43:28;5.43;;;2.50;;
70335;SDS011;57756;47.408;18.940;2022-09-03T06:45:56;6.93;;;3.63;;
70335;SDS011;57756;47.408;18.940;2022-09-03T06:48:23;6.25;;;3.00;;
70335;SDS011;57756;47.408;18.940;2022-09-03T06:50:59;4.90;;;2.28;;
70335;SDS011;57756;47.408;18.940;2022-09-03T06:53:30;5.27;;;2.80;;
70335;SDS011;57756;47.408;18.940;2022-09-03T06:56:05;6.68;;;3.88;;
70335;SDS011;57756;47.408;18.940;2022-09-03T06:58:33;9.55;;;5.10;;
70335;SDS011;57756;47.408;18.940;2022-09-03T07:01:05;10.15;;;5.80;;
70335;SDS011;57756;47.408;18.940;2022-09-03T07:03:32;10.20;;;6.75;;
70335;SDS011;57756;47.408;18.940;2022-09-03T07:06:03;22.83;;;13.80;;
70335;SDS011;57756;47.408;18.940;2022-09-03T07:08:30;11.77;;;7.10;;
70335;SDS011;57756;47.408;18.940;2022-09-03T07:11:07;9.73;;;5.88;;
70335;SDS011;57756;47.408;18.940;2022-09-03T07:13:35;6.72;;;3.70;;
70335;SDS011;57756;47.408;18.940;2022-09-03T07:16:16;5.22;;;2.60;;
70335;SDS011;57756;47.408;18.940;2022-09-03T07:18:43;4.90;;;2.60;;
70335;SDS011;57756;47.408;18.940;2022-09-03T07:21:10;5.78;;;2.78;;
70335;SDS011;57756;47.408;18.940;2022-09-03T07:23:40;6.03;;;2.42;;
70335;SDS011;57756;47.408;18.940;2022-09-03T07:26:10;4.47;;;2.00;;
70335;SDS011;57756;47.408;18.940;2022-09-03T07:28:41;4.70;;;2.30;;
70335;SDS011;57756;47.408;18.940;2022-09-03T07:31:08;5.87;;;2.00;;
70335;SDS011;57756;47.408;18.940;2022-09-03T07:33:39;5.60;;;2.33;;
70335;SDS011;57756;47.408;18.940;2022-09-03T07:36:06;4.22;;;2.45;;
70335;SDS011;57756;47.408;18.940;2022-09-03T07:38:34;7.28;;;2.60;;
70335;SDS011;57756;47.408;18.940;2022-09-03T07:41:01;5.68;;;2.30;;
70335;SDS011;57756;47.408;18.940;2022-09-03T07:43:38;5.13;;;2.43;;
70335;SDS011;57756;47.408;18.940;2022-09-03T07:46:10;3.75;;;2.15;;
70335;SDS011;57756;47.408;18.940;2022-09-03T07:48:39;4.28;;;2.10;;
70335;SDS011;57756;47.408;18.940;2022-09-03T07:51:05;3.88;;;2.17;;
70335;SDS011;57756;47.408;18.940;2022-09-03T07:53:32;4.30;;;1.90;;
70335;SDS011;57756;47.408;18.940;2022-09-03T07:56:04;4.13;;;1.70;;
70335;SDS011;57756;47.408;18.940;2022-09-03T07:58:32;4.22;;;1.92;;
70335;SDS011;57756;47.408;18.940;2022-09-03T08:01:02;3.50;;;2.17;;
70335;SDS011;57756;47.408;18.940;2022-09-03T08:03:33;3.88;;;2.30;;
70335;SDS011;57756;47.408;18.940;2022-09-03T08:06:03;4.20;;;2.00;;
70335;SDS011;57756;47.408;18.940;2022-09-03T08:08:32;4.82;;;2.15;;
70335;SDS011;57756;47.408;18.940;2022-09-03T08:11:10;4.43;;;2.30;;
70335;SDS011;57756;47.408;18.940;2022-09-03T08:13:38;3.95;;;2.10;;
70335;SDS011;57756;47.408;18.940;2022-09-03T08:16:09;4.68;;;2.28;;
70335;SDS011;57756;47.408;18.940;2022-09-03T08:18:36;4.20;;;2.23;;
70335;SDS011;57756;47.408;18.940;2022-09-03T08:21:06;4.60;;;1.90;;
70335;SDS011;57756;47.408;18.940;2022-09-03T08:23:37;4.40;;;2.40;;
70335;SDS011;57756;47.408;18.940;2022-09-03T08:26:04;4.47;;;2.03;;
70335;SDS011;57756;47.408;18.940;2022-09-03T08:28:31;4.05;;;1.60;;
70335;SDS011;57756;47.408;18.940;2022-09-03T08:31:03;7.00;;;2.00;;
70335;SDS011;57756;47.408;18.940;2022-09-03T08:33:36;3.50;;;1.92;;
70335;SDS011;57756;47.408;18.940;2022-09-03T08:38:29;3.97;;;2.00;;
70335;SDS011;57756;47.408;18.940;2022-09-03T08:41:03;4.20;;;1.93;;
70335;SDS011;57756;47.408;18.940;2022-09-03T08:43:53;3.78;;;2.00;;
70335;SDS011;57756;47.408;18.940;2022-09-03T08:46:23;3.22;;;2.05;;
70335;SDS011;57756;47.408;18.940;2022-09-03T08:48:56;4.28;;;2.33;;
70335;SDS011;57756;47.408;18.940;2022-09-03T08:51:23;3.40;;;1.90;;
70335;SDS011;57756;47.408;18.940;2022-09-03T08:53:52;2.80;;;1.70;;
70335;SDS011;57756;47.408;18.940;2022-09-03T08:56:27;3.75;;;1.77;;
70335;SDS011;57756;47.408;18.940;2022-09-03T08:58:54;3.17;;;2.20;;
70335;SDS011;57756;47.408;18.940;2022-09-03T09:12:42;3.83;;;2.20;;
70335;SDS011;57756;47.408;18.940;2022-09-03T09:15:21;4.40;;;1.80;;
70335;SDS011;57756;47.408;18.940;2022-09-03T09:21:12;3.95;;;2.30;;
70335;SDS011;57756;47.408;18.940;2022-09-03T09:23:48;4.28;;;2.10;;
70335;SDS011;57756;47.408;18.940;2022-09-03T09:26:16;2.80;;;1.65;;
70335;SDS011;57756;47.408;18.940;2022-09-03T09:28:46;3.10;;;2.03;;
70335;SDS011;57756;47.408;18.940;2022-09-03T09:31:22;3.30;;;2.05;;
70335;SDS011;57756;47.408;18.940;2022-09-03T09:33:47;3.55;;;2.17;;
70335;SDS011;57756;47.408;18.940;2022-09-03T09:36:13;4.63;;;2.30;;
70335;SDS011;57756;47.408;18.940;2022-09-03T09:38:42;4.55;;;2.20;;
70335;SDS011;57756;47.408;18.940;2022-09-03T09:43:41;4.15;;;1.92;;
70335;SDS011;57756;47.408;18.940;2022-09-03T09:46:14;4.70;;;2.00;;
70335;SDS011;57756;47.408;18.940;2022-09-03T09:48:47;4.10;;;1.92;;
70335;SDS011;57756;47.408;18.940;2022-09-03T09:51:23;6.10;;;2.17;;
70335;SDS011;57756;47.408;18.940;2022-09-03T09:56:25;5.28;;;2.05;;
70335;SDS011;57756;47.408;18.940;2022-09-03T10:01:28;3.60;;;2.05;;
70335;SDS011;57756;47.408;18.940;2022-09-03T10:03:56;3.38;;;2.00;;
70335;SDS011;57756;47.408;18.940;2022-09-03T10:06:28;2.90;;;1.70;;
70335;SDS011;57756;47.408;18.940;2022-09-03T10:09:15;2.75;;;1.50;;
70335;SDS011;57756;47.408;18.940;2022-09-03T10:14:31;3.35;;;1.55;;
70335;SDS011;57756;47.408;18.940;2022-09-03T10:17:08;4.03;;;1.70;;
70335;SDS011;57756;47.408;18.940;2022-09-03T10:22:46;2.72;;;1.52;;
70335;SDS011;57756;47.408;18.940;2022-09-03T10:25:19;3.88;;;1.88;;
70335;SDS011;57756;47.408;18.940;2022-09-03T10:27:46;3.75;;;1.80;;
70335;SDS011;57756;47.408;18.940;2022-09-03T10:30:12;3.03;;;1.80;;
70335;SDS011;57756;47.408;18.940;2022-09-03T10:35:29;3.10;;;1.75;;
70335;SDS011;57756;47.408;18.940;2022-09-03T10:40:41;2.92;;;1.90;;
70335;SDS011;57756;47.408;18.940;2022-09-03T10:46:21;3.75;;;1.85;;
70335;SDS011;57756;47.408;18.940;2022-09-03T10:51:46;2.92;;;1.77;;
70335;SDS011;57756;47.408;18.940;2022-09-03T10:57:48;3.60;;;1.80;;
70335;SDS011;57756;47.408;18.940;2022-09-03T11:05:31;3.33;;;1.65;;
70335;SDS011;57756;47.408;18.940;2022-09-03T11:08:13;2.85;;;1.85;;
70335;SDS011;57756;47.408;18.940;2022-09-03T11:10:46;3.43;;;2.03;;
70335;SDS011;57756;47.408;18.940;2022-09-03T11:13:25;3.65;;;1.73;;
70335;SDS011;57756;47.408;18.940;2022-09-03T11:16:00;4.88;;;1.80;;
70335;SDS011;57756;47.408;18.940;2022-09-03T11:18:35;3.45;;;1.70;;
70335;SDS011;57756;47.408;18.940;2022-09-03T11:21:09;3.40;;;1.67;;
70335;SDS011;57756;47.408;18.940;2022-09-03T11:23:42;4.00;;;1.83;;
70335;SDS011;57756;47.408;18.940;2022-09-03T11:26:12;2.65;;;1.60;;
70335;SDS011;57756;47.408;18.940;2022-09-03T11:34:06;4.70;;;1.97;;
70335;SDS011;57756;47.408;18.940;2022-09-03T11:36:38;3.03;;;2.00;;
70335;SDS011;57756;47.408;18.940;2022-09-03T11:39:19;2.97;;;1.70;;
70335;SDS011;57756;47.408;18.940;2022-09-03T11:42:42;4.13;;;1.80;;
70335;SDS011;57756;47.408;18.940;2022-09-03T11:44:58;3.17;;;1.70;;
70335;SDS011;57756;47.408;18.940;2022-09-03T11:47:37;3.05;;;1.55;;
70335;SDS011;57756;47.408;18.940;2022-09-03T11:50:49;3.35;;;1.80;;
70335;SDS011;57756;47.408;18.940;2022-09-03T11:53:21;3.05;;;1.65;;
70335;SDS011;57756;47.408;18.940;2022-09-03T11:55:53;2.75;;;1.58;;
70335;SDS011;57756;47.408;18.940;2022-09-03T11:58:24;3.00;;;1.40;;
70335;SDS011;57756;47.408;18.940;2022-09-03T12:00:51;5.00;;;2.00;;
70335;SDS011;57756;47.408;18.940;2022-09-03T12:03:21;3.67;;;1.88;;
70335;SDS011;57756;47.408;18.940;2022-09-03T12:11:26;2.70;;;1.63;;
70335;SDS011;57756;47.408;18.940;2022-09-03T12:14:04;6.28;;;2.33;;
70335;SDS011;57756;47.408;18.940;2022-09-03T12:19:27;3.65;;;1.80;;
70335;SDS011;57756;47.408;18.940;2022-09-03T12:22:01;3.50;;;1.75;;
70335;SDS011;57756;47.408;18.940;2022-09-03T12:24:29;2.90;;;1.83;;
70335;SDS011;57756;47.408;18.940;2022-09-03T12:26:59;3.22;;;1.73;;
70335;SDS011;57756;47.408;18.940;2022-09-03T12:29:27;3.47;;;1.73;;
70335;SDS011;57756;47.408;18.940;2022-09-03T12:31:54;3.00;;;1.88;;
70335;SDS011;57756;47.408;18.940;2022-09-03T12:34:21;2.58;;;1.48;;
70335;SDS011;57756;47.408;18.940;2022-09-03T12:36:49;2.97;;;1.50;;
70335;SDS011;57756;47.408;18.940;2022-09-03T12:39:34;2.72;;;1.40;;
70335;SDS011;57756;47.408;18.940;2022-09-03T12:42:04;2.50;;;1.40;;
70335;SDS011;57756;47.408;18.940;2022-09-03T12:44:37;2.28;;;1.20;;
70335;SDS011;57756;47.408;18.940;2022-09-03T12:47:09;3.20;;;1.42;;
70335;SDS011;57756;47.408;18.940;2022-09-03T12:49:40;3.10;;;1.70;;
70335;SDS011;57756;47.408;18.940;2022-09-03T12:52:17;3.40;;;1.55;;
70335;SDS011;57756;47.408;18.940;2022-09-03T12:54:50;2.80;;;1.45;;
70335;SDS011;57756;47.408;18.940;2022-09-03T12:57:19;3.05;;;1.35;;
70335;SDS011;57756;47.408;18.940;2022-09-03T12:59:49;2.20;;;1.20;;
70335;SDS011;57756;47.408;18.940;2022-09-03T13:02:26;2.03;;;1.10;;
70335;SDS011;57756;47.408;18.940;2022-09-03T13:05:02;1.98;;;1.17;;
70335;SDS011;57756;47.408;18.940;2022-09-03T13:07:30;3.67;;;1.20;;
70335;SDS011;57756;47.408;18.940;2022-09-03T13:10:06;2.35;;;1.23;;
70335;SDS011;57756;47.408;18.940;2022-09-03T13:12:43;2.85;;;1.33;;
70335;SDS011;57756;47.408;18.940;2022-09-03T13:15:22;2.43;;;1.43;;
70335;SDS011;57756;47.408;18.940;2022-09-03T13:20:47;2.60;;;1.02;;
70335;SDS011;57756;47.408;18.940;2022-09-03T13:34:47;4.20;;;1.40;;
70335;SDS011;57756;47.408;18.940;2022-09-03T13:40:01;3.50;;;1.27;;
70335;SDS011;57756;47.408;18.940;2022-09-03T13:42:40;2.00;;;1.00;;
70335;SDS011;57756;47.408;18.940;2022-09-03T13:45:20;3.85;;;1.50;;
70335;SDS011;57756;47.408;18.940;2022-09-03T13:47:58;2.47;;;1.23;;
70335;SDS011;57756;47.408;18.940;2022-09-03T13:56:31;2.40;;;0.80;;
70335;SDS011;57756;47.408;18.940;2022-09-03T13:59:28;2.03;;;1.00;;
70335;SDS011;57756;47.408;18.940;2022-09-03T14:04:48;2.95;;;1.13;;
70335;SDS011;57756;47.408;18.940;2022-09-03T14:21:26;2.75;;;1.20;;
70335;SDS011;57756;47.408;18.940;2022-09-03T14:24:00;2.43;;;1.27;;
70335;SDS011;57756;47.408;18.940;2022-09-03T14:26:32;3.25;;;1.10;;
70335;SDS011;57756;47.408;18.940;2022-09-03T14:32:16;2.13;;;1.00;;
70335;SDS011;57756;47.408;18.940;2022-09-03T14:39:53;1.90;;;0.95;;
70335;SDS011;57756;47.408;18.940;2022-09-03T15:05:08;2.30;;;0.90;;
70335;SDS011;57756;47.408;18.940;2022-09-03T15:12:43;3.05;;;1.20;;
70335;SDS011;57756;47.408;18.940;2022-09-03T15:15:21;2.63;;;1.20;;
70335;SDS011;57756;47.408;18.940;2022-09-03T15:17:55;4.07;;;1.40;;
70335;SDS011;57756;47.408;18.940;2022-09-03T15:20:47;3.05;;;1.20;;
70335;SDS011;57756;47.408;18.940;2022-09-03T15:31:51;3.27;;;1.50;;
70335;SDS011;57756;47.408;18.940;2022-09-03T15:37:10;2.70;;;1.25;;
70335;SDS011;57756;47.408;18.940;2022-09-03T15:39:42;2.50;;;1.17;;
70335;SDS011;57756;47.408;18.940;2022-09-03T15:42:13;2.63;;;1.20;;
70335;SDS011;57756;47.408;18.940;2022-09-03T15:44:48;2.70;;;1.23;;
70335;SDS011;57756;47.408;18.940;2022-09-03T15:50:05;2.72;;;1.58;;
70335;SDS011;57756;47.408;18.940;2022-09-03T15:52:44;4.00;;;1.63;;
70335;SDS011;57756;47.408;18.940;2022-09-03T15:58:09;3.77;;;1.60;;
70335;SDS011;57756;47.408;18.940;2022-09-03T16:04:04;7.05;;;1.60;;
70335;SDS011;57756;47.408;18.940;2022-09-03T16:07:00;3.53;;;1.73;;
70335;SDS011;57756;47.408;18.940;2022-09-03T16:09:48;3.55;;;1.77;;
70335;SDS011;57756;47.408;18.940;2022-09-03T16:15:14;3.50;;;1.30;;
70335;SDS011;57756;47.408;18.940;2022-09-03T16:20:17;3.63;;;1.48;;
70335;SDS011;57756;47.408;18.940;2022-09-03T16:25:47;4.47;;;1.10;;
70335;SDS011;57756;47.408;18.940;2022-09-03T16:28:18;2.88;;;1.38;;
70335;SDS011;57756;47.408;18.940;2022-09-03T16:30:59;2.55;;;1.10;;
70335;SDS011;57756;47.408;18.940;2022-09-03T16:41:49;3.45;;;0.98;;
70335;SDS011;57756;47.408;18.940;2022-09-03T16:47:08;2.88;;;1.30;;
70335;SDS011;57756;47.408;18.940;2022-09-03T17:00:25;5.10;;;2.10;;
70335;SDS011;57756;47.408;18.940;2022-09-03T17:03:39;4.00;;;1.70;;
70335;SDS011;57756;47.408;18.940;2022-09-03T17:06:12;5.30;;;1.70;;
70335;SDS011;57756;47.408;18.940;2022-09-03T17:11:54;4.63;;;1.95;;
70335;SDS011;57756;47.408;18.940;2022-09-03T17:25:28;3.28;;;1.48;;
70335;SDS011;57756;47.408;18.940;2022-09-03T17:28:04;4.10;;;2.08;;
70335;SDS011;57756;47.408;18.940;2022-09-03T17:34:10;5.93;;;2.20;;
70335;SDS011;57756;47.408;18.940;2022-09-03T17:36:37;5.15;;;2.70;;
70335;SDS011;57756;47.408;18.940;2022-09-03T17:41:51;5.03;;;3.00;;
70335;SDS011;57756;47.408;18.940;2022-09-03T17:53:28;5.97;;;2.40;;
70335;SDS011;57756;47.408;18.940;2022-09-03T17:56:03;5.40;;;2.40;;
70335;SDS011;57756;47.408;18.940;2022-09-03T17:58:35;5.10;;;2.55;;
70335;SDS011;57756;47.408;18.940;2022-09-03T18:06:25;6.73;;;2.63;;
70335;SDS011;57756;47.408;18.940;2022-09-03T18:11:40;4.80;;;2.30;;
70335;SDS011;57756;47.408;18.940;2022-09-03T18:14:19;3.65;;;1.80;;
70335;SDS011;57756;47.408;18.940;2022-09-03T18:16:55;4.22;;;2.05;;
70335;SDS011;57756;47.408;18.940;2022-09-03T18:19:38;3.37;;;1.90;;
70335;SDS011;57756;47.408;18.940;2022-09-03T18:22:31;3.78;;;2.00;;
70335;SDS011;57756;47.408;18.940;2022-09-03T18:25:21;5.53;;;1.90;;
70335;SDS011;57756;47.408;18.940;2022-09-03T18:28:09;4.25;;;2.15;;
70335;SDS011;57756;47.408;18.940;2022-09-03T18:30:57;7.90;;;2.40;;
70335;SDS011;57756;47.408;18.940;2022-09-03T18:33:41;4.30;;;2.20;;
70335;SDS011;57756;47.408;18.940;2022-09-03T18:36:25;5.70;;;2.30;;
70335;SDS011;57756;47.408;18.940;2022-09-03T18:42:07;5.85;;;2.60;;
70335;SDS011;57756;47.408;18.940;2022-09-03T18:48:10;4.47;;;2.50;;
70335;SDS011;57756;47.408;18.940;2022-09-03T18:51:08;5.05;;;2.85;;
70335;SDS011;57756;47.408;18.940;2022-09-03T18:54:11;5.47;;;2.58;;
70335;SDS011;57756;47.408;18.940;2022-09-03T18:57:12;5.30;;;2.72;;
70335;SDS011;57756;47.408;18.940;2022-09-03T19:00:10;5.70;;;2.50;;
70335;SDS011;57756;47.408;18.940;2022-09-03T19:06:22;5.40;;;2.67;;
70335;SDS011;57756;47.408;18.940;2022-09-03T19:15:24;5.35;;;2.30;;
70335;SDS011;57756;47.408;18.940;2022-09-03T19:21:32;6.07;;;2.63;;
70335;SDS011;57756;47.408;18.940;2022-09-03T19:24:22;6.15;;;3.53;;
70335;SDS011;57756;47.408;18.940;2022-09-03T19:36:17;5.50;;;2.90;;
70335;SDS011;57756;47.408;18.940;2022-09-03T19:42:57;6.60;;;2.72;;
70335;SDS011;57756;47.408;18.940;2022-09-03T19:54:29;6.80;;;2.42;;
70335;SDS011;57756;47.408;18.940;2022-09-03T19:57:14;4.63;;;2.40;;
70335;SDS011;57756;47.408;18.940;2022-09-03T20:00:02;4.63;;;2.60;;
70335;SDS011;57756;47.408;18.940;2022-09-03T20:02:48;7.50;;;3.10;;
70335;SDS011;57756;47.408;18.940;2022-09-03T20:05:32;6.15;;;3.35;;
70335;SDS011;57756;47.408;18.940;2022-09-03T20:08:17;6.05;;;2.78;;
70335;SDS011;57756;47.408;18.940;2022-09-03T20:11:02;6.43;;;3.08;;
70335;SDS011;57756;47.408;18.940;2022-09-03T20:13:29;6.30;;;3.03;;
70335;SDS011;57756;47.408;18.940;2022-09-03T20:16:16;8.60;;;3.10;;
70335;SDS011;57756;47.408;18.940;2022-09-03T20:24:11;5.00;;;2.78;;
70335;SDS011;57756;47.408;18.940;2022-09-03T20:52:14;4.53;;;2.25;;
70335;SDS011;57756;47.408;18.940;2022-09-03T20:57:51;4.63;;;2.10;;